Terminal Aerodrome Forecast
Issued by NWS

Home | Current Version | Previous Version | Text Only | Print | Product List | Glossary On
Versions: 1 2 3 4 5 6 7 8 9 10 11 12 13 14 15 16 17 18
000
FTUS41 KBOX 230807 AAA
TAFBAF
TAF AMD
KBAF 230807Z 2308/2406 VRB03KT P6SM BKN110
     FM231600 19011G21KT P6SM VCSH BKN040
     FM232100 20010G19KT P6SM BKN110
     FM240000 20008KT P6SM VCSH BKN030=

USA.gov is the U.S. government's official web portal to all federal, state and local government web resources and services.